Chas, Argentina
Current Conditions -  °F | °C
As of 3:00 PM on Thursday 30 Oct 2014 (Local Time) from SAEZ Reporting Station
Clear Clear  
Wind Chill: 73°   Ceiling: Unl
Heat Index: 73°   Visibility: 6mi
Dew Point: 52°   Wind: 6mph
Humidity: 47%   Direction: 220°SW
Pressure: 29.83"   Gusts: NA
Location:  35.83°S, 58.54°W
Report Text: SAEZ 301800Z 22005KT 160V290 CAVOK 23/11 Q1010
Loading
Personal Weather Stations






























Interactive Weather Map New forecast layout! Learn more

10-Day Weather Forecast

Advertisements
Track Severe Weather on mobile